createdAt,value
2023-03-08T00:02:48.760Z,68.85
2023-03-08T00:09:50.305Z,67.99
2023-03-08T00:16:51.870Z,67.59
2023-03-08T00:23:54.058Z,67.82
2023-03-08T00:31:00.031Z,68.15
2023-03-08T00:38:01.653Z,68.86
2023-03-08T00:45:03.425Z,69.96
2023-03-08T00:52:05.703Z,69.20
2023-03-08T00:59:07.271Z,69.27
2023-03-08T01:06:10.807Z,69.21
2023-03-08T01:13:12.501Z,69.48
2023-03-08T01:20:14.128Z,69.72
2023-03-08T01:27:16.841Z,69.78
2023-03-08T01:34:18.453Z,69.93
2023-03-08T01:41:29.757Z,70.99
2023-03-08T01:48:51.314Z,71.58
2023-03-08T01:55:54.058Z,72.21
2023-03-08T02:03:09.071Z,72.22
2023-03-08T02:10:11.451Z,72.12
2023-03-08T02:17:13.050Z,71.97
2023-03-08T02:24:22.215Z,72.93
2023-03-08T02:31:23.768Z,72.36
2023-03-08T02:38:25.337Z,72.41
2023-03-08T02:45:26.936Z,73.23
2023-03-08T02:52:28.478Z,73.22
2023-03-08T02:59:30.897Z,73.48
2023-03-08T03:06:33.760Z,73.13
2023-03-08T03:13:35.833Z,73.04
2023-03-08T03:20:37.718Z,73.35
2023-03-08T03:27:39.366Z,72.95
2023-03-08T03:34:41.846Z,73.79
2023-03-08T03:41:44.292Z,73.68
2023-03-08T03:48:48.703Z,73.53
2023-03-08T03:55:53.891Z,73.22
2023-03-08T04:02:55.773Z,73.42
2023-03-08T04:09:57.649Z,73.08
2023-03-08T04:17:00.330Z,73.54
2023-03-08T04:24:11.035Z,72.96
2023-03-08T04:31:14.669Z,72.05
2023-03-08T04:38:17.162Z,72.35
2023-03-08T04:45:21.198Z,71.96
2023-03-08T04:52:22.964Z,71.08
2023-03-08T04:59:24.938Z,70.91
2023-03-08T05:06:29.446Z,71.08
2023-03-08T05:13:37.048Z,70.72
2023-03-08T05:20:39.656Z,71.21
2023-03-08T05:27:41.678Z,70.99
2023-03-08T05:34:44.387Z,71.47
2023-03-08T05:41:51.917Z,71.58
2023-03-08T05:49:00.990Z,72.27
2023-03-08T05:56:15.621Z,71.29
2023-03-08T06:03:23.127Z,72.64
2023-03-08T06:10:25.192Z,72.02
2023-03-08T06:17:27.912Z,71.78
2023-03-08T06:24:31.360Z,71.62
2023-03-08T06:31:35.689Z,71.79
2023-03-08T06:38:40.214Z,72.29
2023-03-08T06:45:42.043Z,71.84
2023-03-08T06:52:43.980Z,72.12
2023-03-08T06:59:46.301Z,70.59
2023-03-08T07:06:47.849Z,70.24
2023-03-08T07:13:49.393Z,68.24
2023-03-08T07:20:57.051Z,70.31
2023-03-08T07:27:59.343Z,69.49
2023-03-08T07:35:00.930Z,68.94
2023-03-08T07:42:02.457Z,66.85
2023-03-08T07:49:04.034Z,62.00
2023-03-08T07:56:05.985Z,64.46
2023-03-08T08:03:07.540Z,60.87
2023-03-08T08:10:09.850Z,60.88
2023-03-08T08:17:11.545Z,59.99
2023-03-08T08:24:13.136Z,59.35
2023-03-08T08:31:16.470Z,56.17
2023-03-08T08:38:18.041Z,53.99
2023-03-08T08:45:19.627Z,54.23
2023-03-08T08:52:21.332Z,54.00
2023-03-08T08:59:22.967Z,53.52
2023-03-08T09:06:24.741Z,48.58
2023-03-08T09:13:26.348Z,49.64
2023-03-08T09:20:27.875Z,47.17
2023-03-08T09:27:29.553Z,47.53
2023-03-08T09:34:31.230Z,47.64
2023-03-08T09:41:41.660Z,48.40
2023-03-08T09:48:44.878Z,49.35
2023-03-08T09:55:49.509Z,45.84
2023-03-08T10:03:18.936Z,47.12
2023-03-08T10:10:38.400Z,47.64
2023-03-08T10:18:10.526Z,45.60
2023-03-08T10:25:31.300Z,46.76
2023-03-08T10:32:33.141Z,45.48
2023-03-08T10:39:36.274Z,44.17
2023-03-08T10:46:45.137Z,43.79
2023-03-08T10:53:56.648Z,42.59
2023-03-08T11:01:00.308Z,41.12
2023-03-08T11:08:01.864Z,39.89
2023-03-08T11:15:12.793Z,40.63
2023-03-08T11:22:27.007Z,41.06
2023-03-08T11:29:43.458Z,42.89
2023-03-08T11:37:00.135Z,40.91
2023-03-08T11:44:17.493Z,41.11
2023-03-08T11:51:42.313Z,42.00
2023-03-08T11:58:50.952Z,40.98
2023-03-08T12:05:55.510Z,42.30
2023-03-08T12:13:04.970Z,43.53
2023-03-08T12:20:08.161Z,43.36
2023-03-08T12:27:35.147Z,42.77
2023-03-08T12:34:37.782Z,43.05
2023-03-08T12:41:39.343Z,41.83
2023-03-08T12:48:48.233Z,43.03
2023-03-08T12:56:29.970Z,42.60
2023-03-08T13:03:39.605Z,43.04
2023-03-08T13:10:52.389Z,43.78
2023-03-08T13:18:01.055Z,44.32
2023-03-08T13:25:07.050Z,44.82
2023-03-08T13:32:13.558Z,45.10
2023-03-08T13:39:26.210Z,45.45
2023-03-08T13:46:27.784Z,46.99
2023-03-08T13:53:35.429Z,48.34
2023-03-08T14:00:37.114Z,48.95
2023-03-08T14:07:38.702Z,50.65
2023-03-08T14:14:40.675Z,53.52
2023-03-08T14:21:59.544Z,55.58
2023-03-08T14:29:17.988Z,57.65
2023-03-08T14:36:19.552Z,58.75
2023-03-08T14:43:23.024Z,59.33
2023-03-08T14:50:34.236Z,61.34
2023-03-08T14:57:35.784Z,62.35
2023-03-08T15:04:37.715Z,62.96
2023-03-08T15:11:39.357Z,63.60
2023-03-08T15:18:40.888Z,65.19
2023-03-08T15:25:42.533Z,65.75
2023-03-08T15:32:44.519Z,66.13
2023-03-08T15:39:46.337Z,66.54
2023-03-08T15:46:47.985Z,67.62
2023-03-08T15:53:49.788Z,67.98
2023-03-08T16:00:52.148Z,67.34
2023-03-08T16:07:59.265Z,67.44
2023-03-08T16:15:00.875Z,67.50
2023-03-08T16:22:02.691Z,67.36
2023-03-08T16:29:04.470Z,68.17
2023-03-08T16:36:06.223Z,69.69
2023-03-08T16:43:08.252Z,69.91
2023-03-08T16:50:12.245Z,69.71
2023-03-08T16:57:19.098Z,69.68
2023-03-08T17:04:22.654Z,69.06
2023-03-08T17:11:25.944Z,69.43
2023-03-08T17:18:27.522Z,69.92
2023-03-08T17:25:29.120Z,68.69
2023-03-08T17:32:31.611Z,69.14
2023-03-08T17:39:33.205Z,68.62
2023-03-08T17:46:34.914Z,69.02
2023-03-08T17:53:37.452Z,68.72
2023-03-08T18:00:38.990Z,68.63
2023-03-08T18:07:41.855Z,69.56
2023-03-08T18:14:44.538Z,69.48
2023-03-08T18:21:53.174Z,69.61
2023-03-08T18:28:54.871Z,70.86
2023-03-08T18:35:57.400Z,70.94
2023-03-08T18:42:59.046Z,71.17
2023-03-08T18:50:00.672Z,71.63
2023-03-08T18:57:02.191Z,71.73
2023-03-08T19:04:05.986Z,71.95
2023-03-08T19:11:18.511Z,72.44
2023-03-08T19:18:20.070Z,70.75
2023-03-08T19:25:21.611Z,71.12
2023-03-08T19:32:23.293Z,71.04
2023-03-08T19:39:31.921Z,70.90
2023-03-08T19:46:37.496Z,71.77
2023-03-08T19:53:40.174Z,71.94
2023-03-08T20:00:43.889Z,71.71
2023-03-08T20:07:45.492Z,71.66
2023-03-08T20:14:47.055Z,71.10
2023-03-08T20:21:48.674Z,71.13
2023-03-08T20:28:50.580Z,71.51
2023-03-08T20:36:10.242Z,71.63
2023-03-08T20:43:11.913Z,71.62
2023-03-08T20:50:13.489Z,71.69
2023-03-08T20:57:15.069Z,71.24
2023-03-08T21:04:16.571Z,71.30
2023-03-08T21:11:18.277Z,72.21
2023-03-08T21:18:19.838Z,72.26
2023-03-08T21:25:21.422Z,72.32
2023-03-08T21:32:23.147Z,72.64
2023-03-08T21:39:26.719Z,72.50
2023-03-08T21:46:28.399Z,72.85
2023-03-08T21:53:29.989Z,72.35
2023-03-08T22:00:32.095Z,73.30
2023-03-08T22:07:33.614Z,71.82
2023-03-08T22:14:35.150Z,72.33
2023-03-08T22:21:36.725Z,72.80
2023-03-08T22:28:38.333Z,73.38
2023-03-08T22:35:39.912Z,73.91
2023-03-08T22:42:41.541Z,74.38
2023-03-08T22:49:43.107Z,72.99
2023-03-08T22:56:44.728Z,73.56
2023-03-08T23:03:49.141Z,73.26
2023-03-08T23:10:50.644Z,73.18
2023-03-08T23:17:52.168Z,73.77
2023-03-08T23:24:53.667Z,73.82
2023-03-08T23:31:55.287Z,72.56
2023-03-08T23:38:57.675Z,72.51
2023-03-08T23:45:59.245Z,72.26
2023-03-08T23:53:00.801Z,72.44
